createdAt,value
2023-05-09T00:01:31.621Z,5.71
2023-05-09T00:04:00.308Z,5.67
2023-05-09T00:06:28.767Z,5.64
2023-05-09T00:08:57.249Z,5.61
2023-05-09T00:11:25.639Z,5.59
2023-05-09T00:13:54.093Z,5.56
2023-05-09T00:16:24.425Z,5.54
2023-05-09T00:18:52.858Z,5.52
2023-05-09T00:21:21.190Z,5.50
2023-05-09T00:23:49.519Z,5.49
2023-05-09T00:26:17.843Z,5.45
2023-05-09T00:28:46.168Z,5.44
2023-05-09T00:31:14.745Z,5.41
2023-05-09T00:33:43.097Z,5.39
2023-05-09T00:36:11.573Z,5.38
2023-05-09T00:38:39.997Z,5.35
2023-05-09T00:41:08.401Z,5.31
2023-05-09T00:43:36.789Z,5.28
2023-05-09T00:46:05.286Z,5.26
2023-05-09T00:48:33.697Z,5.22
2023-05-09T00:51:02.364Z,5.20
2023-05-09T00:53:31.133Z,5.17
2023-05-09T00:56:00.384Z,5.16
2023-05-09T00:58:29.922Z,5.14
2023-05-09T01:00:59.115Z,5.12
2023-05-09T01:03:27.717Z,5.10
2023-05-09T01:06:15.704Z,5.10
2023-05-09T01:09:02.100Z,5.09
2023-05-09T01:11:59.844Z,5.08
2023-05-09T01:14:52.569Z,5.05
2023-05-09T01:17:40.310Z,5.01
2023-05-09T01:20:20.716Z,4.98
2023-05-09T01:23:00.853Z,4.95
2023-05-09T01:25:48.853Z,4.93
2023-05-09T01:28:48.640Z,4.89
2023-05-09T01:31:17.521Z,4.86
2023-05-09T01:33:52.809Z,4.83
2023-05-09T01:36:21.728Z,4.80
2023-05-09T01:38:52.721Z,4.78
2023-05-09T01:41:23.512Z,4.74
2023-05-09T01:43:53.636Z,4.72
2023-05-09T01:46:23.851Z,4.70
2023-05-09T01:48:53.472Z,4.66
2023-05-09T01:51:22.889Z,4.62
2023-05-09T01:53:53.286Z,4.60
2023-05-09T01:56:23.720Z,4.57
2023-05-09T01:58:53.956Z,4.54
2023-05-09T02:01:24.423Z,4.52
2023-05-09T02:03:54.277Z,4.50
2023-05-09T02:06:24.434Z,4.48
2023-05-09T02:08:52.837Z,4.47
2023-05-09T02:11:21.568Z,4.47
2023-05-09T02:13:50.742Z,4.46
2023-05-09T02:16:20.683Z,4.45
2023-05-09T02:18:49.406Z,4.45
2023-05-09T02:21:17.875Z,4.43
2023-05-09T02:23:47.416Z,4.43
2023-05-09T02:26:15.982Z,4.42
2023-05-09T02:28:46.703Z,4.41
2023-05-09T02:31:18.908Z,4.41
2023-05-09T02:33:48.006Z,4.41
2023-05-09T02:36:17.289Z,4.41
2023-05-09T02:38:46.449Z,4.40
2023-05-09T02:41:16.356Z,4.41
2023-05-09T02:43:44.632Z,4.42
2023-05-09T02:46:13.183Z,4.42
2023-05-09T02:48:41.599Z,4.42
2023-05-09T02:51:09.946Z,4.42
2023-05-09T02:53:38.226Z,4.42
2023-05-09T02:56:06.764Z,4.41
2023-05-09T02:58:35.274Z,4.41
2023-05-09T03:01:03.762Z,4.40
2023-05-09T03:03:34.786Z,4.37
2023-05-09T03:06:03.327Z,4.35
2023-05-09T03:08:31.916Z,4.32
2023-05-09T03:11:00.389Z,4.30
2023-05-09T03:13:28.648Z,4.28
2023-05-09T03:15:56.981Z,4.26
2023-05-09T03:18:25.380Z,4.25
2023-05-09T03:20:53.706Z,4.23
2023-05-09T03:23:22.138Z,4.22
2023-05-09T03:25:50.430Z,4.22
2023-05-09T03:28:18.760Z,4.20
2023-05-09T03:30:47.175Z,4.19
2023-05-09T03:33:15.476Z,4.19
2023-05-09T03:35:43.762Z,4.19
2023-05-09T03:38:12.126Z,4.19
2023-05-09T03:40:40.523Z,4.19
2023-05-09T03:43:08.927Z,4.20
2023-05-09T03:45:38.375Z,4.20
2023-05-09T03:48:09.623Z,4.22
2023-05-09T03:50:38.351Z,4.22
2023-05-09T03:53:06.800Z,4.22
2023-05-09T03:55:35.372Z,4.23
2023-05-09T03:58:04.107Z,4.25
2023-05-09T04:00:32.432Z,4.27
2023-05-09T04:03:01.273Z,4.29
2023-05-09T04:05:30.290Z,4.32
2023-05-09T04:07:58.673Z,4.36
2023-05-09T04:10:27.164Z,4.39
2023-05-09T04:12:55.774Z,4.44
2023-05-09T04:15:24.177Z,4.50
2023-05-09T04:17:52.595Z,4.56
2023-05-09T04:20:21.157Z,4.63
2023-05-09T04:22:49.508Z,4.70
2023-05-09T04:25:17.941Z,4.78
2023-05-09T04:27:46.258Z,4.87
2023-05-09T04:30:15.274Z,4.96
2023-05-09T04:32:46.145Z,5.06
2023-05-09T04:35:16.096Z,5.14
2023-05-09T04:37:45.723Z,5.23
2023-05-09T04:40:14.654Z,5.33
2023-05-09T04:42:43.598Z,5.43
2023-05-09T04:45:12.352Z,5.54
2023-05-09T04:47:40.909Z,5.65
2023-05-09T04:50:10.041Z,5.76
2023-05-09T04:52:38.362Z,5.89
2023-05-09T04:55:08.163Z,6.00
2023-05-09T04:57:36.498Z,6.12
2023-05-09T05:00:07.399Z,6.23
2023-05-09T05:02:35.775Z,6.35
2023-05-09T05:05:11.548Z,6.46
2023-05-09T05:07:40.722Z,6.58
2023-05-09T05:10:09.884Z,6.71
2023-05-09T05:12:38.327Z,6.83
2023-05-09T05:15:07.120Z,6.95
2023-05-09T05:17:35.600Z,7.08
2023-05-09T05:20:06.634Z,7.20
2023-05-09T05:22:35.954Z,7.32
2023-05-09T05:25:05.523Z,7.45
2023-05-09T05:27:33.831Z,7.57
2023-05-09T05:30:02.145Z,7.70
2023-05-09T05:32:30.671Z,7.81
2023-05-09T05:34:59.062Z,7.95
2023-05-09T05:37:27.472Z,8.07
2023-05-09T05:39:55.752Z,8.19
2023-05-09T05:42:24.151Z,8.31
2023-05-09T05:44:52.478Z,8.43
2023-05-09T05:47:21.032Z,8.56
2023-05-09T05:49:49.745Z,8.71
2023-05-09T05:52:18.168Z,8.85
2023-05-09T05:54:46.583Z,9.00
2023-05-09T05:57:15.023Z,9.13
2023-05-09T05:59:43.371Z,9.26
2023-05-09T06:02:11.735Z,9.38
2023-05-09T06:04:41.357Z,9.48
2023-05-09T06:07:11.856Z,9.57
2023-05-09T06:09:40.397Z,9.68
2023-05-09T06:12:09.058Z,9.78
2023-05-09T06:14:37.400Z,9.90
2023-05-09T06:17:05.772Z,10.00
2023-05-09T06:19:34.123Z,10.07
2023-05-09T06:22:02.964Z,10.17
2023-05-09T06:24:35.671Z,10.25
2023-05-09T06:27:05.249Z,10.36
2023-05-09T06:29:33.764Z,10.44
2023-05-09T06:32:02.170Z,10.52
2023-05-09T06:47:53.324Z,11.35
2023-05-09T06:50:22.180Z,11.53
2023-05-09T06:52:50.578Z,11.58
2023-05-09T06:55:19.229Z,11.65
2023-05-09T06:57:48.158Z,11.72
2023-05-09T07:00:17.041Z,11.75
2023-05-09T07:02:45.612Z,11.77
2023-05-09T07:05:14.624Z,11.81
2023-05-09T07:07:44.610Z,11.86
2023-05-09T07:10:13.348Z,11.93
2023-05-09T07:12:42.124Z,11.98
2023-05-09T07:15:11.101Z,12.04
2023-05-09T07:17:40.159Z,12.09
2023-05-09T07:20:09.107Z,12.16
2023-05-09T07:22:37.875Z,12.23
2023-05-09T07:25:10.483Z,12.30
2023-05-09T07:27:39.077Z,12.36
2023-05-09T07:30:09.511Z,12.44
2023-05-09T07:32:38.020Z,12.51
2023-05-09T07:35:06.916Z,12.56
2023-05-09T07:37:35.400Z,12.62
2023-05-09T07:40:06.250Z,12.68
2023-05-09T07:42:34.700Z,12.76
2023-05-09T07:45:06.304Z,12.83
2023-05-09T07:47:34.855Z,12.95
2023-05-09T07:50:03.600Z,13.03
2023-05-09T07:52:32.069Z,13.10
2023-05-09T07:55:00.615Z,13.17
2023-05-09T07:57:28.986Z,13.26
2023-05-09T07:59:57.465Z,13.34
2023-05-09T08:02:26.072Z,13.43
2023-05-09T08:04:54.673Z,13.49
2023-05-09T08:07:22.985Z,13.57
2023-05-09T08:09:51.334Z,13.65
2023-05-09T08:12:19.696Z,13.74
2023-05-09T08:14:48.118Z,13.84
2023-05-09T08:17:16.939Z,13.94
2023-05-09T08:19:45.431Z,14.06
2023-05-09T08:22:21.259Z,14.16
2023-05-09T08:24:49.659Z,14.26
2023-05-09T08:27:18.218Z,14.36
2023-05-09T08:29:46.566Z,14.45
2023-05-09T08:32:15.016Z,14.52
2023-05-09T08:34:43.431Z,14.63
2023-05-09T08:37:13.722Z,14.73
2023-05-09T08:39:43.786Z,14.82
2023-05-09T08:42:16.042Z,14.88
2023-05-09T08:44:44.538Z,14.98
2023-05-09T08:47:14.254Z,15.07
2023-05-09T08:49:43.513Z,15.17
2023-05-09T08:52:12.094Z,15.28
2023-05-09T08:54:40.565Z,15.39
2023-05-09T08:57:09.341Z,15.51
2023-05-09T08:59:42.533Z,15.65
2023-05-09T09:02:14.605Z,15.78
2023-05-09T09:04:45.146Z,15.92
2023-05-09T09:07:15.979Z,16.06
2023-05-09T09:09:47.241Z,16.20
2023-05-09T09:12:17.624Z,16.36
2023-05-09T09:14:50.276Z,16.51
2023-05-09T09:17:25.327Z,16.65
2023-05-09T09:19:59.395Z,16.82
2023-05-09T09:22:34.039Z,16.97
2023-05-09T09:25:04.641Z,17.11
2023-05-09T09:27:33.077Z,17.26
2023-05-09T09:30:12.467Z,17.45
2023-05-09T09:32:40.964Z,17.63
2023-05-09T09:35:11.784Z,17.80
2023-05-09T09:37:42.850Z,18.04
2023-05-09T09:40:12.848Z,18.24
2023-05-09T09:42:47.111Z,18.45
2023-05-09T09:45:18.438Z,18.66
2023-05-09T09:47:50.269Z,18.75
2023-05-09T09:50:23.169Z,18.80
2023-05-09T09:52:56.609Z,18.95
2023-05-09T09:55:25.270Z,19.19
2023-05-09T09:57:53.801Z,19.37
2023-05-09T10:00:27.806Z,19.52
2023-05-09T10:03:00.473Z,19.67
2023-05-09T10:05:31.092Z,19.84
2023-05-09T10:08:04.790Z,20.07
2023-05-09T10:10:35.875Z,20.27
2023-05-09T10:13:12.469Z,20.53
2023-05-09T10:15:53.007Z,20.80
2023-05-09T10:18:28.886Z,21.04
2023-05-09T10:21:03.898Z,21.31
2023-05-09T10:23:37.373Z,21.55
2023-05-09T10:26:27.563Z,21.76
2023-05-09T10:29:03.866Z,21.92
2023-05-09T10:31:35.544Z,22.21
2023-05-09T10:34:10.364Z,22.45
2023-05-09T10:36:38.738Z,22.80
2023-05-09T10:39:08.345Z,23.14
2023-05-09T10:41:38.463Z,23.37
2023-05-09T10:44:07.324Z,23.60
2023-05-09T10:46:36.694Z,23.87
2023-05-09T10:49:05.317Z,24.13
2023-05-09T10:51:37.213Z,24.30
2023-05-09T10:54:33.710Z,24.48
2023-05-09T10:57:02.249Z,24.76
2023-05-09T10:59:38.871Z,25.02
2023-05-09T11:02:18.757Z,25.26
2023-05-09T11:04:47.573Z,25.43
2023-05-09T11:07:30.187Z,25.64
2023-05-09T11:10:17.955Z,25.85
2023-05-09T11:13:00.466Z,25.95
2023-05-09T11:15:29.833Z,26.20
2023-05-09T11:18:10.626Z,26.49
2023-05-09T11:20:49.004Z,26.75
2023-05-09T11:23:25.539Z,26.92
2023-05-09T11:26:04.022Z,27.08
2023-05-09T11:28:36.703Z,27.23
2023-05-09T11:31:14.814Z,27.42
2023-05-09T11:33:47.029Z,27.71
2023-05-09T11:36:33.506Z,27.89
2023-05-09T11:39:05.214Z,28.15
2023-05-09T11:41:49.413Z,28.41
2023-05-09T11:44:20.691Z,28.76
2023-05-09T11:46:49.593Z,29.05
2023-05-09T11:49:19.598Z,29.14
2023-05-09T11:51:48.063Z,29.21
2023-05-09T11:54:16.479Z,29.33
2023-05-09T11:56:45.088Z,29.56
2023-05-09T11:59:15.847Z,29.88
2023-05-09T12:01:45.096Z,30.18
2023-05-09T12:04:13.575Z,30.41
2023-05-09T12:06:48.889Z,30.53
2023-05-09T12:09:17.336Z,30.62
2023-05-09T12:11:52.222Z,30.61
2023-05-09T12:14:32.206Z,30.61
2023-05-09T12:17:01.789Z,30.75
2023-05-09T12:19:30.133Z,30.89
2023-05-09T12:22:05.756Z,31.03
2023-05-09T12:24:37.457Z,31.22
2023-05-09T12:27:08.046Z,31.31
2023-05-09T12:29:36.653Z,31.44
2023-05-09T12:32:05.784Z,31.64
2023-05-09T12:34:34.127Z,31.72
2023-05-09T12:37:03.735Z,31.79
2023-05-09T12:39:32.224Z,32.01
2023-05-09T12:42:02.228Z,32.23
2023-05-09T12:44:30.873Z,32.24
2023-05-09T12:47:03.985Z,32.15
2023-05-09T12:49:32.578Z,32.09
2023-05-09T12:52:03.831Z,32.16
2023-05-09T12:54:33.257Z,32.33
2023-05-09T12:57:04.403Z,32.49
2023-05-09T12:59:33.363Z,32.50
2023-05-09T13:02:02.146Z,32.64
2023-05-09T13:04:30.765Z,32.75
2023-05-09T13:07:00.005Z,32.78
2023-05-09T13:09:28.490Z,32.78
2023-05-09T13:11:56.871Z,32.83
2023-05-09T13:14:25.272Z,32.97
2023-05-09T13:16:54.124Z,33.08
2023-05-09T13:19:22.598Z,33.17
2023-05-09T13:21:52.380Z,33.18
2023-05-09T13:24:20.792Z,33.28
2023-05-09T13:26:49.127Z,33.37
2023-05-09T13:29:17.472Z,33.51
2023-05-09T13:31:45.781Z,33.59
2023-05-09T13:34:14.133Z,33.68
2023-05-09T13:36:42.425Z,33.88
2023-05-09T13:39:10.894Z,34.12
2023-05-09T13:41:39.239Z,34.32
2023-05-09T13:44:07.707Z,34.62
2023-05-09T13:46:37.257Z,34.99
2023-05-09T13:49:06.028Z,35.32
2023-05-09T13:51:34.562Z,35.56
2023-05-09T13:54:04.697Z,35.83
2023-05-09T13:56:33.090Z,36.08
2023-05-09T13:59:01.500Z,36.25
2023-05-09T14:01:30.278Z,36.39
2023-05-09T14:03:58.718Z,36.59
2023-05-09T14:06:29.133Z,36.80
2023-05-09T14:08:57.587Z,36.93
2023-05-09T14:11:26.147Z,37.12
2023-05-09T14:13:54.486Z,37.40
2023-05-09T14:16:22.939Z,37.57
2023-05-09T14:18:51.293Z,37.77
2023-05-09T14:21:19.723Z,37.96
2023-05-09T14:23:49.602Z,37.97
2023-05-09T14:26:19.196Z,37.99
2023-05-09T14:28:47.526Z,38.21
2023-05-09T14:31:15.957Z,38.50
2023-05-09T14:33:44.459Z,38.57
2023-05-09T14:36:12.802Z,38.62
2023-05-09T14:38:42.751Z,38.71
2023-05-09T14:41:11.338Z,38.90
2023-05-09T14:43:39.688Z,39.01
2023-05-09T14:46:08.404Z,39.14
2023-05-09T14:48:37.071Z,39.26
2023-05-09T14:51:05.612Z,39.35
2023-05-09T14:53:39.629Z,39.45
2023-05-09T14:56:09.506Z,39.57
2023-05-09T14:58:37.906Z,39.79
2023-05-09T15:01:06.300Z,40.05
2023-05-09T15:03:34.815Z,40.21
2023-05-09T15:06:03.410Z,40.29
2023-05-09T15:08:31.848Z,40.55
2023-05-09T15:11:00.224Z,40.84
2023-05-09T15:13:28.626Z,41.09
2023-05-09T15:15:57.322Z,41.33
2023-05-09T15:18:28.627Z,41.53
2023-05-09T15:20:57.457Z,41.65
2023-05-09T15:23:25.833Z,41.86
2023-05-09T15:25:54.238Z,42.10
2023-05-09T15:28:22.575Z,42.23
2023-05-09T15:30:50.937Z,42.35
2023-05-09T15:33:19.644Z,42.61
2023-05-09T15:35:50.121Z,42.87
2023-05-09T15:38:18.820Z,42.97
2023-05-09T15:40:47.779Z,43.03
2023-05-09T15:43:16.206Z,43.09
2023-05-09T15:45:47.365Z,43.23
2023-05-09T15:48:16.736Z,43.38
2023-05-09T15:50:45.563Z,43.47
2023-05-09T15:53:15.628Z,43.71
2023-05-09T15:55:44.715Z,44.00
2023-05-09T15:58:14.116Z,44.22
2023-05-09T16:00:42.787Z,44.31
2023-05-09T16:03:11.891Z,44.34
2023-05-09T16:05:41.042Z,44.37
2023-05-09T16:08:09.562Z,44.44
2023-05-09T16:10:38.211Z,44.52
2023-05-09T16:13:09.245Z,44.69
2023-05-09T16:15:37.795Z,45.00
2023-05-09T16:18:06.491Z,45.29
2023-05-09T16:20:35.442Z,45.31
2023-05-09T16:23:03.882Z,45.31
2023-05-09T16:25:34.539Z,45.36
2023-05-09T16:28:04.093Z,45.59
2023-05-09T16:30:32.676Z,45.73
2023-05-09T16:33:01.087Z,45.77
2023-05-09T16:35:29.637Z,45.55
2023-05-09T16:37:58.040Z,45.34
2023-05-09T16:40:26.380Z,45.25
2023-05-09T16:42:54.780Z,45.18
2023-05-09T16:45:23.109Z,44.96
2023-05-09T16:47:51.541Z,44.74
2023-05-09T16:50:21.706Z,44.68
2023-05-09T16:52:50.233Z,44.34
2023-05-09T16:55:18.743Z,44.17
2023-05-09T16:57:47.085Z,43.93
2023-05-09T17:00:16.606Z,43.78
2023-05-09T17:02:46.034Z,43.63
2023-05-09T17:05:14.421Z,43.42
2023-05-09T17:07:42.899Z,43.11
2023-05-09T17:10:11.811Z,42.85
2023-05-09T17:12:40.393Z,42.63
2023-05-09T17:15:09.874Z,42.30
2023-05-09T17:17:38.314Z,41.96
2023-05-09T17:20:09.987Z,41.66
2023-05-09T17:22:38.445Z,41.40
2023-05-09T17:25:07.622Z,41.21
2023-05-09T17:27:35.988Z,41.06
2023-05-09T17:30:04.984Z,40.84
2023-05-09T17:32:33.320Z,40.57
2023-05-09T17:35:02.011Z,40.18
2023-05-09T17:37:30.411Z,39.72
2023-05-09T17:39:59.005Z,39.12
2023-05-09T17:42:27.338Z,38.54
2023-05-09T17:44:56.512Z,37.76
2023-05-09T17:47:25.100Z,36.65
2023-05-09T17:49:53.664Z,35.72
2023-05-09T17:52:22.333Z,34.86
2023-05-09T17:54:50.779Z,34.29
2023-05-09T17:57:19.074Z,33.71
2023-05-09T17:59:47.989Z,32.71
2023-05-09T18:02:16.805Z,31.52
2023-05-09T18:04:46.327Z,30.36
2023-05-09T18:07:15.118Z,29.29
2023-05-09T18:09:43.540Z,28.31
2023-05-09T18:12:12.359Z,27.44
2023-05-09T18:14:40.625Z,26.56
2023-05-09T18:17:08.964Z,25.72
2023-05-09T18:19:37.421Z,24.92
2023-05-09T18:22:05.784Z,24.18
2023-05-09T18:24:34.188Z,23.44
2023-05-09T18:27:04.351Z,22.77
2023-05-09T18:29:32.909Z,22.10
2023-05-09T18:32:01.997Z,21.46
2023-05-09T18:34:30.414Z,20.91
2023-05-09T18:36:58.885Z,20.39
2023-05-09T18:39:27.329Z,19.92
2023-05-09T18:41:55.986Z,19.45
2023-05-09T18:44:24.299Z,19.01
2023-05-09T18:46:53.846Z,18.64
2023-05-09T18:49:22.564Z,18.30
2023-05-09T18:51:51.061Z,17.97
2023-05-09T18:54:19.509Z,17.67
2023-05-09T18:56:47.965Z,17.38
2023-05-09T18:59:17.168Z,17.11
2023-05-09T19:01:45.608Z,16.85
2023-05-09T19:11:06.908Z,16.02
2023-05-09T19:13:38.776Z,15.81
2023-05-09T19:16:08.274Z,15.59
2023-05-09T19:18:37.328Z,15.42
2023-05-09T19:23:51.841Z,15.03
2023-05-09T19:26:21.700Z,14.87
2023-05-09T19:28:50.132Z,14.70
2023-05-09T19:31:20.403Z,14.53
2023-05-09T19:33:49.643Z,14.35
2023-05-09T19:36:18.889Z,14.17
2023-05-09T19:38:47.309Z,14.01
2023-05-09T19:41:15.779Z,13.87
2023-05-09T19:43:44.437Z,13.72
2023-05-09T19:46:13.002Z,13.59
2023-05-09T19:48:41.376Z,13.49
2023-05-09T19:51:12.325Z,13.38
2023-05-09T19:53:41.285Z,13.26
2023-05-09T19:56:09.957Z,13.14
2023-05-09T19:58:38.548Z,13.00
2023-05-09T20:01:07.370Z,12.85
2023-05-09T20:03:37.124Z,12.74
2023-05-09T20:08:52.182Z,12.49
2023-05-09T20:11:21.642Z,12.37
2023-05-09T20:13:50.030Z,12.29
2023-05-09T20:16:20.013Z,12.21
2023-05-09T20:18:50.742Z,12.15
2023-05-09T20:21:20.459Z,12.09
2023-05-09T20:23:48.779Z,12.04
2023-05-09T20:26:17.208Z,11.98
2023-05-09T20:28:45.520Z,11.93
2023-05-09T20:31:14.013Z,11.89
2023-05-09T20:33:42.405Z,11.84
2023-05-09T20:36:11.295Z,11.80
2023-05-09T20:38:39.798Z,11.76
2023-05-09T20:41:08.167Z,11.73
2023-05-09T20:43:36.554Z,11.69
2023-05-09T20:46:04.891Z,11.67
2023-05-09T20:48:33.346Z,11.63
2023-05-09T20:51:01.614Z,11.60
2023-05-09T20:53:32.332Z,11.56
2023-05-09T20:56:01.746Z,11.52
2023-05-09T20:58:34.772Z,11.50
2023-05-09T21:01:03.162Z,11.47
2023-05-09T21:03:31.635Z,11.44
2023-05-09T21:06:00.082Z,11.40
2023-05-09T21:08:28.475Z,11.37
2023-05-09T21:10:56.922Z,11.34
2023-05-09T21:13:25.433Z,11.30
2023-05-09T21:15:53.871Z,11.27
2023-05-09T21:18:22.198Z,11.23
2023-05-09T21:20:50.730Z,11.19
2023-05-09T21:23:19.147Z,11.15
2023-05-09T21:25:47.550Z,11.10
2023-05-09T21:28:17.299Z,11.06
2023-05-09T21:30:52.319Z,11.02
2023-05-09T21:33:21.255Z,10.98
2023-05-09T21:35:49.557Z,10.94
2023-05-09T21:38:17.855Z,10.89
2023-05-09T21:40:46.261Z,10.86
2023-05-09T21:43:15.440Z,10.81
2023-05-09T21:45:45.603Z,10.76
2023-05-09T21:48:13.982Z,10.71
2023-05-09T21:50:46.331Z,10.66
2023-05-09T21:53:14.699Z,10.61
2023-05-09T21:55:43.043Z,10.57
2023-05-09T21:58:11.366Z,10.53
2023-05-09T22:00:39.756Z,10.49
2023-05-09T22:03:08.260Z,10.45
2023-05-09T22:05:36.848Z,10.42
2023-05-09T22:08:05.602Z,10.37
2023-05-09T22:10:34.146Z,10.32
2023-05-09T22:13:02.603Z,10.27
2023-05-09T22:15:31.053Z,10.23
2023-05-09T22:17:59.416Z,10.19
2023-05-09T22:20:27.750Z,10.15
2023-05-09T22:22:56.346Z,10.11
2023-05-09T22:25:24.658Z,10.08
2023-05-09T22:27:54.641Z,10.07
2023-05-09T22:30:24.103Z,10.05
2023-05-09T22:32:52.659Z,10.04
2023-05-09T22:38:06.942Z,10.07
2023-05-09T22:40:35.306Z,10.05
2023-05-09T22:43:03.769Z,10.05
2023-05-09T22:45:32.291Z,10.04
2023-05-09T22:48:00.610Z,10.01
2023-05-09T22:50:29.060Z,9.97
2023-05-09T22:52:57.528Z,9.94
2023-05-09T22:55:25.913Z,9.91
2023-05-09T22:57:54.333Z,9.87
2023-05-09T23:00:22.797Z,9.82
2023-05-09T23:02:51.245Z,9.77
2023-05-09T23:05:19.680Z,9.72
2023-05-09T23:07:48.056Z,9.66
2023-05-09T23:10:16.852Z,9.60
2023-05-09T23:12:45.619Z,9.56
2023-05-09T23:15:14.186Z,9.51
2023-05-09T23:17:42.632Z,9.46
2023-05-09T23:20:11.884Z,9.43
2023-05-09T23:22:40.232Z,9.39
2023-05-09T23:25:09.383Z,9.35
2023-05-09T23:27:40.502Z,9.31
2023-05-09T23:30:09.852Z,9.26
2023-05-09T23:32:38.399Z,9.22
2023-05-09T23:35:07.209Z,9.17
2023-05-09T23:37:35.499Z,9.13
2023-05-09T23:40:05.065Z,9.09
2023-05-09T23:42:33.476Z,9.05
2023-05-09T23:45:01.917Z,9.01
2023-05-09T23:47:30.604Z,8.97
2023-05-09T23:49:59.088Z,8.92
2023-05-09T23:52:27.514Z,8.88
2023-05-09T23:54:55.853Z,8.84
2023-05-09T23:57:24.227Z,8.80
2023-05-09T23:59:52.580Z,8.76
